sensor_id;sensor_type;location;lat;lon;timestamp;P1;durP1;ratioP1;P2;durP2;ratioP2
15856;SDS011;8028;53.612;10.038;2022-07-24T00:02:23;3.85;;;3.55;;
15856;SDS011;8028;53.612;10.038;2022-07-24T00:04:49;3.85;;;3.47;;
15856;SDS011;8028;53.612;10.038;2022-07-24T00:07:15;3.60;;;3.30;;
15856;SDS011;8028;53.612;10.038;2022-07-24T00:09:41;5.80;;;4.22;;
15856;SDS011;8028;53.612;10.038;2022-07-24T00:12:06;5.22;;;3.45;;
15856;SDS011;8028;53.612;10.038;2022-07-24T00:14:33;4.05;;;3.55;;
15856;SDS011;8028;53.612;10.038;2022-07-24T00:16:59;3.33;;;3.00;;
15856;SDS011;8028;53.612;10.038;2022-07-24T00:19:24;3.67;;;3.35;;
15856;SDS011;8028;53.612;10.038;2022-07-24T00:21:50;3.72;;;3.42;;
15856;SDS011;8028;53.612;10.038;2022-07-24T00:24:16;4.40;;;4.00;;
15856;SDS011;8028;53.612;10.038;2022-07-24T00:26:41;3.85;;;3.55;;
15856;SDS011;8028;53.612;10.038;2022-07-24T00:29:07;5.20;;;3.88;;
15856;SDS011;8028;53.612;10.038;2022-07-24T00:31:33;4.38;;;3.95;;
15856;SDS011;8028;53.612;10.038;2022-07-24T00:33:59;4.38;;;3.65;;
15856;SDS011;8028;53.612;10.038;2022-07-24T00:36:24;4.05;;;3.75;;
15856;SDS011;8028;53.612;10.038;2022-07-24T00:38:50;4.47;;;3.80;;
15856;SDS011;8028;53.612;10.038;2022-07-24T00:41:16;6.40;;;4.05;;
15856;SDS011;8028;53.612;10.038;2022-07-24T00:44:01;4.72;;;4.28;;
15856;SDS011;8028;53.612;10.038;2022-07-24T00:46:32;4.35;;;3.83;;
15856;SDS011;8028;53.612;10.038;2022-07-24T00:48:58;4.28;;;3.53;;
15856;SDS011;8028;53.612;10.038;2022-07-24T00:51:24;3.85;;;3.55;;
15856;SDS011;8028;53.612;10.038;2022-07-24T00:53:50;5.63;;;3.75;;
15856;SDS011;8028;53.612;10.038;2022-07-24T00:56:17;6.55;;;4.13;;
15856;SDS011;8028;53.612;10.038;2022-07-24T00:58:44;4.45;;;4.13;;
15856;SDS011;8028;53.612;10.038;2022-07-24T01:01:11;4.65;;;4.15;;
15856;SDS011;8028;53.612;10.038;2022-07-24T01:03:36;4.90;;;3.80;;
15856;SDS011;8028;53.612;10.038;2022-07-24T01:06:02;4.72;;;3.90;;
15856;SDS011;8028;53.612;10.038;2022-07-24T01:08:28;4.65;;;4.25;;
15856;SDS011;8028;53.612;10.038;2022-07-24T01:10:54;5.85;;;5.30;;
15856;SDS011;8028;53.612;10.038;2022-07-24T01:13:19;6.32;;;4.50;;
15856;SDS011;8028;53.612;10.038;2022-07-24T01:15:47;6.40;;;4.43;;
15856;SDS011;8028;53.612;10.038;2022-07-24T01:18:12;4.85;;;3.85;;
15856;SDS011;8028;53.612;10.038;2022-07-24T01:20:38;6.43;;;4.68;;
15856;SDS011;8028;53.612;10.038;2022-07-24T01:23:04;5.22;;;3.83;;
15856;SDS011;8028;53.612;10.038;2022-07-24T01:25:30;4.43;;;3.80;;
15856;SDS011;8028;53.612;10.038;2022-07-24T01:27:55;4.70;;;4.35;;
15856;SDS011;8028;53.612;10.038;2022-07-24T01:30:22;6.35;;;4.50;;
15856;SDS011;8028;53.612;10.038;2022-07-24T01:32:48;4.28;;;3.97;;
15856;SDS011;8028;53.612;10.038;2022-07-24T01:35:14;5.47;;;4.40;;
15856;SDS011;8028;53.612;10.038;2022-07-24T01:37:39;5.40;;;4.90;;
15856;SDS011;8028;53.612;10.038;2022-07-24T01:40:05;5.45;;;4.43;;
15856;SDS011;8028;53.612;10.038;2022-07-24T01:42:31;4.95;;;4.55;;
15856;SDS011;8028;53.612;10.038;2022-07-24T01:44:57;6.47;;;5.00;;
15856;SDS011;8028;53.612;10.038;2022-07-24T01:47:22;5.07;;;4.55;;
15856;SDS011;8028;53.612;10.038;2022-07-24T01:49:48;4.82;;;4.43;;
15856;SDS011;8028;53.612;10.038;2022-07-24T01:52:13;5.45;;;4.40;;
15856;SDS011;8028;53.612;10.038;2022-07-24T01:54:39;5.20;;;4.70;;
15856;SDS011;8028;53.612;10.038;2022-07-24T01:57:05;4.50;;;4.07;;
15856;SDS011;8028;53.612;10.038;2022-07-24T01:59:30;7.68;;;4.97;;
15856;SDS011;8028;53.612;10.038;2022-07-24T02:01:56;5.63;;;4.93;;
15856;SDS011;8028;53.612;10.038;2022-07-24T02:04:22;6.90;;;5.38;;
15856;SDS011;8028;53.612;10.038;2022-07-24T02:06:47;5.75;;;4.97;;
15856;SDS011;8028;53.612;10.038;2022-07-24T02:09:13;5.50;;;5.10;;
15856;SDS011;8028;53.612;10.038;2022-07-24T02:11:38;4.97;;;4.57;;
15856;SDS011;8028;53.612;10.038;2022-07-24T02:14:04;5.75;;;4.97;;
15856;SDS011;8028;53.612;10.038;2022-07-24T02:16:30;7.93;;;5.05;;
15856;SDS011;8028;53.612;10.038;2022-07-24T02:18:56;5.57;;;5.07;;
15856;SDS011;8028;53.612;10.038;2022-07-24T02:21:21;5.50;;;5.07;;
15856;SDS011;8028;53.612;10.038;2022-07-24T02:23:47;5.47;;;5.07;;
15856;SDS011;8028;53.612;10.038;2022-07-24T02:26:13;5.95;;;5.43;;
15856;SDS011;8028;53.612;10.038;2022-07-24T02:28:39;6.90;;;5.43;;
15856;SDS011;8028;53.612;10.038;2022-07-24T02:31:04;6.15;;;5.57;;
15856;SDS011;8028;53.612;10.038;2022-07-24T02:33:30;6.78;;;6.07;;
15856;SDS011;8028;53.612;10.038;2022-07-24T02:35:55;6.22;;;5.63;;
15856;SDS011;8028;53.612;10.038;2022-07-24T02:38:21;7.30;;;5.78;;
15856;SDS011;8028;53.612;10.038;2022-07-24T02:40:47;5.85;;;5.20;;
15856;SDS011;8028;53.612;10.038;2022-07-24T02:43:12;5.85;;;5.35;;
15856;SDS011;8028;53.612;10.038;2022-07-24T02:45:38;7.57;;;5.93;;
15856;SDS011;8028;53.612;10.038;2022-07-24T02:48:04;6.97;;;6.32;;
15856;SDS011;8028;53.612;10.038;2022-07-24T02:50:33;6.65;;;5.30;;
15856;SDS011;8028;53.612;10.038;2022-07-24T02:53:00;6.15;;;5.53;;
15856;SDS011;8028;53.612;10.038;2022-07-24T02:55:26;6.65;;;5.93;;
15856;SDS011;8028;53.612;10.038;2022-07-24T02:57:54;7.07;;;5.72;;
15856;SDS011;8028;53.612;10.038;2022-07-24T03:00:21;6.63;;;6.03;;
15856;SDS011;8028;53.612;10.038;2022-07-24T03:02:47;6.10;;;5.50;;
15856;SDS011;8028;53.612;10.038;2022-07-24T03:05:13;5.63;;;5.13;;
15856;SDS011;8028;53.612;10.038;2022-07-24T03:07:39;5.78;;;5.18;;
15856;SDS011;8028;53.612;10.038;2022-07-24T03:10:06;6.43;;;5.80;;
15856;SDS011;8028;53.612;10.038;2022-07-24T03:12:33;5.97;;;5.47;;
15856;SDS011;8028;53.612;10.038;2022-07-24T03:14:59;5.95;;;5.32;;
15856;SDS011;8028;53.612;10.038;2022-07-24T03:17:25;6.65;;;6.05;;
15856;SDS011;8028;53.612;10.038;2022-07-24T03:19:51;9.27;;;6.78;;
15856;SDS011;8028;53.612;10.038;2022-07-24T03:22:16;7.45;;;6.75;;
15856;SDS011;8028;53.612;10.038;2022-07-24T03:24:42;7.28;;;6.53;;
15856;SDS011;8028;53.612;10.038;2022-07-24T03:27:08;7.00;;;5.90;;
15856;SDS011;8028;53.612;10.038;2022-07-24T03:29:33;6.85;;;6.15;;
15856;SDS011;8028;53.612;10.038;2022-07-24T03:31:59;8.35;;;7.65;;
15856;SDS011;8028;53.612;10.038;2022-07-24T03:34:25;7.95;;;7.22;;
15856;SDS011;8028;53.612;10.038;2022-07-24T03:36:50;7.75;;;6.40;;
15856;SDS011;8028;53.612;10.038;2022-07-24T03:39:16;7.53;;;6.43;;
15856;SDS011;8028;53.612;10.038;2022-07-24T03:41:42;7.80;;;6.35;;
15856;SDS011;8028;53.612;10.038;2022-07-24T03:44:08;8.38;;;6.47;;
15856;SDS011;8028;53.612;10.038;2022-07-24T03:46:33;6.82;;;6.22;;
15856;SDS011;8028;53.612;10.038;2022-07-24T03:48:59;7.45;;;6.65;;
15856;SDS011;8028;53.612;10.038;2022-07-24T03:51:25;7.63;;;6.85;;
15856;SDS011;8028;53.612;10.038;2022-07-24T03:53:51;9.70;;;7.10;;
15856;SDS011;8028;53.612;10.038;2022-07-24T03:56:17;7.47;;;6.85;;
15856;SDS011;8028;53.612;10.038;2022-07-24T03:58:42;6.72;;;6.13;;
15856;SDS011;8028;53.612;10.038;2022-07-24T04:01:08;7.90;;;6.57;;
15856;SDS011;8028;53.612;10.038;2022-07-24T04:03:35;7.25;;;6.22;;
15856;SDS011;8028;53.612;10.038;2022-07-24T04:06:01;6.95;;;6.15;;
15856;SDS011;8028;53.612;10.038;2022-07-24T04:08:29;8.93;;;6.88;;
15856;SDS011;8028;53.612;10.038;2022-07-24T04:10:54;7.20;;;6.53;;
15856;SDS011;8028;53.612;10.038;2022-07-24T04:13:23;6.35;;;5.75;;
15856;SDS011;8028;53.612;10.038;2022-07-24T04:15:50;6.82;;;6.22;;
15856;SDS011;8028;53.612;10.038;2022-07-24T04:18:16;6.43;;;5.93;;
15856;SDS011;8028;53.612;10.038;2022-07-24T04:20:41;7.38;;;6.30;;
15856;SDS011;8028;53.612;10.038;2022-07-24T04:23:07;7.00;;;6.40;;
15856;SDS011;8028;53.612;10.038;2022-07-24T04:25:33;6.22;;;5.65;;
15856;SDS011;8028;53.612;10.038;2022-07-24T04:28:00;6.03;;;5.43;;
15856;SDS011;8028;53.612;10.038;2022-07-24T04:30:26;5.60;;;5.07;;
15856;SDS011;8028;53.612;10.038;2022-07-24T04:32:52;8.35;;;5.90;;
15856;SDS011;8028;53.612;10.038;2022-07-24T04:35:18;9.32;;;4.95;;
15856;SDS011;8028;53.612;10.038;2022-07-24T04:37:43;5.85;;;5.35;;
15856;SDS011;8028;53.612;10.038;2022-07-24T04:40:10;5.32;;;4.57;;
15856;SDS011;8028;53.612;10.038;2022-07-24T04:42:37;7.32;;;5.72;;
15856;SDS011;8028;53.612;10.038;2022-07-24T04:45:03;5.53;;;4.80;;
15856;SDS011;8028;53.612;10.038;2022-07-24T04:47:30;5.97;;;5.38;;
15856;SDS011;8028;53.612;10.038;2022-07-24T04:49:55;5.22;;;4.30;;
15856;SDS011;8028;53.612;10.038;2022-07-24T04:52:21;4.68;;;4.28;;
15856;SDS011;8028;53.612;10.038;2022-07-24T04:54:47;4.97;;;4.47;;
15856;SDS011;8028;53.612;10.038;2022-07-24T04:57:12;5.45;;;4.93;;
15856;SDS011;8028;53.612;10.038;2022-07-24T04:59:38;6.20;;;5.00;;
15856;SDS011;8028;53.612;10.038;2022-07-24T05:02:03;6.03;;;4.57;;
15856;SDS011;8028;53.612;10.038;2022-07-24T05:04:29;4.25;;;3.88;;
15856;SDS011;8028;53.612;10.038;2022-07-24T05:06:55;3.63;;;3.33;;
15856;SDS011;8028;53.612;10.038;2022-07-24T05:09:20;5.43;;;4.28;;
15856;SDS011;8028;53.612;10.038;2022-07-24T05:11:46;7.25;;;4.47;;
15856;SDS011;8028;53.612;10.038;2022-07-24T05:14:11;5.45;;;3.85;;
15856;SDS011;8028;53.612;10.038;2022-07-24T05:16:37;4.93;;;4.38;;
15856;SDS011;8028;53.612;10.038;2022-07-24T05:19:03;4.32;;;3.92;;
15856;SDS011;8028;53.612;10.038;2022-07-24T05:21:28;4.05;;;3.75;;
15856;SDS011;8028;53.612;10.038;2022-07-24T05:23:54;4.55;;;4.03;;
15856;SDS011;8028;53.612;10.038;2022-07-24T05:26:20;4.95;;;3.58;;
15856;SDS011;8028;53.612;10.038;2022-07-24T05:28:45;4.18;;;3.88;;
15856;SDS011;8028;53.612;10.038;2022-07-24T05:31:11;4.00;;;3.63;;
15856;SDS011;8028;53.612;10.038;2022-07-24T05:33:37;6.20;;;4.00;;
15856;SDS011;8028;53.612;10.038;2022-07-24T05:36:03;4.47;;;3.35;;
15856;SDS011;8028;53.612;10.038;2022-07-24T05:38:29;3.70;;;3.40;;
15856;SDS011;8028;53.612;10.038;2022-07-24T05:40:55;5.93;;;4.00;;
15856;SDS011;8028;53.612;10.038;2022-07-24T05:43:21;3.75;;;3.47;;
15856;SDS011;8028;53.612;10.038;2022-07-24T05:45:46;3.95;;;3.55;;
15856;SDS011;8028;53.612;10.038;2022-07-24T05:48:12;5.07;;;3.30;;
15856;SDS011;8028;53.612;10.038;2022-07-24T05:50:38;4.90;;;4.50;;
15856;SDS011;8028;53.612;10.038;2022-07-24T05:53:03;3.78;;;3.35;;
15856;SDS011;8028;53.612;10.038;2022-07-24T05:55:29;5.20;;;3.45;;
15856;SDS011;8028;53.612;10.038;2022-07-24T05:57:55;3.33;;;3.13;;
15856;SDS011;8028;53.612;10.038;2022-07-24T06:00:20;4.30;;;3.90;;
15856;SDS011;8028;53.612;10.038;2022-07-24T06:02:46;6.15;;;3.92;;
15856;SDS011;8028;53.612;10.038;2022-07-24T06:05:15;3.40;;;3.03;;
15856;SDS011;8028;53.612;10.038;2022-07-24T06:07:42;3.50;;;3.28;;
15856;SDS011;8028;53.612;10.038;2022-07-24T06:10:08;4.90;;;3.15;;
15856;SDS011;8028;53.612;10.038;2022-07-24T06:12:34;4.38;;;3.42;;
15856;SDS011;8028;53.612;10.038;2022-07-24T06:15:00;7.85;;;2.58;;
15856;SDS011;8028;53.612;10.038;2022-07-24T06:17:25;3.03;;;2.50;;
15856;SDS011;8028;53.612;10.038;2022-07-24T06:19:51;6.38;;;2.88;;
15856;SDS011;8028;53.612;10.038;2022-07-24T06:22:16;2.80;;;2.60;;
15856;SDS011;8028;53.612;10.038;2022-07-24T06:24:42;4.40;;;2.30;;
15856;SDS011;8028;53.612;10.038;2022-07-24T06:27:08;3.17;;;2.53;;
15856;SDS011;8028;53.612;10.038;2022-07-24T06:29:33;3.05;;;2.58;;
15856;SDS011;8028;53.612;10.038;2022-07-24T06:31:59;2.72;;;2.17;;
15856;SDS011;8028;53.612;10.038;2022-07-24T06:34:25;5.90;;;2.80;;
15856;SDS011;8028;53.612;10.038;2022-07-24T06:36:51;4.90;;;2.65;;
15856;SDS011;8028;53.612;10.038;2022-07-24T06:39:17;2.88;;;2.58;;
15856;SDS011;8028;53.612;10.038;2022-07-24T06:41:42;5.70;;;2.67;;
15856;SDS011;8028;53.612;10.038;2022-07-24T06:44:22;3.50;;;2.35;;
15856;SDS011;8028;53.612;10.038;2022-07-24T06:46:48;7.45;;;2.40;;
15856;SDS011;8028;53.612;10.038;2022-07-24T06:49:14;2.13;;;1.92;;
15856;SDS011;8028;53.612;10.038;2022-07-24T06:51:40;2.92;;;2.38;;
15856;SDS011;8028;53.612;10.038;2022-07-24T06:54:05;2.75;;;2.08;;
15856;SDS011;8028;53.612;10.038;2022-07-24T06:56:31;3.50;;;2.58;;
15856;SDS011;8028;53.612;10.038;2022-07-24T06:58:57;4.72;;;2.53;;
15856;SDS011;8028;53.612;10.038;2022-07-24T07:01:25;3.03;;;2.45;;
15856;SDS011;8028;53.612;10.038;2022-07-24T07:03:53;3.83;;;2.55;;
15856;SDS011;8028;53.612;10.038;2022-07-24T07:06:19;5.38;;;2.03;;
15856;SDS011;8028;53.612;10.038;2022-07-24T07:08:45;4.07;;;2.25;;
15856;SDS011;8028;53.612;10.038;2022-07-24T07:11:11;3.00;;;2.05;;
15856;SDS011;8028;53.612;10.038;2022-07-24T07:13:37;4.18;;;2.55;;
15856;SDS011;8028;53.612;10.038;2022-07-24T07:16:02;3.90;;;2.50;;
15856;SDS011;8028;53.612;10.038;2022-07-24T07:18:28;4.38;;;2.60;;
15856;SDS011;8028;53.612;10.038;2022-07-24T07:20:54;2.63;;;2.22;;
15856;SDS011;8028;53.612;10.038;2022-07-24T07:23:24;3.35;;;2.45;;
15856;SDS011;8028;53.612;10.038;2022-07-24T07:25:51;2.47;;;2.03;;
15856;SDS011;8028;53.612;10.038;2022-07-24T07:28:18;5.22;;;2.40;;
15856;SDS011;8028;53.612;10.038;2022-07-24T07:30:44;3.80;;;2.20;;
15856;SDS011;8028;53.612;10.038;2022-07-24T07:33:10;3.55;;;1.90;;
15856;SDS011;8028;53.612;10.038;2022-07-24T07:35:36;3.50;;;1.95;;
15856;SDS011;8028;53.612;10.038;2022-07-24T07:38:01;2.95;;;2.20;;
15856;SDS011;8028;53.612;10.038;2022-07-24T07:40:27;2.45;;;1.58;;
15856;SDS011;8028;53.612;10.038;2022-07-24T07:42:53;2.47;;;2.30;;
15856;SDS011;8028;53.612;10.038;2022-07-24T07:45:19;4.15;;;2.45;;
15856;SDS011;8028;53.612;10.038;2022-07-24T07:47:44;2.92;;;2.53;;
15856;SDS011;8028;53.612;10.038;2022-07-24T07:50:10;2.78;;;2.58;;
15856;SDS011;8028;53.612;10.038;2022-07-24T07:52:36;4.75;;;2.33;;
15856;SDS011;8028;53.612;10.038;2022-07-24T07:55:02;3.10;;;1.80;;
15856;SDS011;8028;53.612;10.038;2022-07-24T07:57:28;4.50;;;1.90;;
15856;SDS011;8028;53.612;10.038;2022-07-24T07:59:54;2.50;;;2.30;;
15856;SDS011;8028;53.612;10.038;2022-07-24T08:02:20;2.92;;;2.05;;
15856;SDS011;8028;53.612;10.038;2022-07-24T08:04:45;2.30;;;2.10;;
15856;SDS011;8028;53.612;10.038;2022-07-24T08:07:11;3.70;;;2.42;;
15856;SDS011;8028;53.612;10.038;2022-07-24T08:09:37;3.92;;;2.03;;
15856;SDS011;8028;53.612;10.038;2022-07-24T08:12:03;2.75;;;1.95;;
15856;SDS011;8028;53.612;10.038;2022-07-24T08:14:29;3.95;;;1.95;;
15856;SDS011;8028;53.612;10.038;2022-07-24T08:27:52;4.35;;;2.50;;
15856;SDS011;8028;53.612;10.038;2022-07-24T08:30:18;4.93;;;2.67;;
15856;SDS011;8028;53.612;10.038;2022-07-24T08:32:44;2.70;;;2.40;;
15856;SDS011;8028;53.612;10.038;2022-07-24T08:35:10;4.68;;;2.17;;
15856;SDS011;8028;53.612;10.038;2022-07-24T08:37:37;4.20;;;2.03;;
15856;SDS011;8028;53.612;10.038;2022-07-24T08:40:03;2.97;;;1.88;;
15856;SDS011;8028;53.612;10.038;2022-07-24T08:42:30;3.30;;;3.00;;
15856;SDS011;8028;53.612;10.038;2022-07-24T08:44:56;3.28;;;2.97;;
15856;SDS011;8028;53.612;10.038;2022-07-24T08:47:22;1.88;;;1.63;;
15856;SDS011;8028;53.612;10.038;2022-07-24T08:49:48;4.85;;;2.25;;
15856;SDS011;8028;53.612;10.038;2022-07-24T08:52:23;2.25;;;1.83;;
15856;SDS011;8028;53.612;10.038;2022-07-24T08:54:50;2.60;;;2.13;;
15856;SDS011;8028;53.612;10.038;2022-07-24T08:57:16;2.58;;;2.33;;
15856;SDS011;8028;53.612;10.038;2022-07-24T08:59:41;3.05;;;2.08;;
15856;SDS011;8028;53.612;10.038;2022-07-24T09:02:07;3.83;;;2.80;;
15856;SDS011;8028;53.612;10.038;2022-07-24T09:04:40;2.40;;;2.20;;
15856;SDS011;8028;53.612;10.038;2022-07-24T09:07:15;3.28;;;2.20;;
15856;SDS011;8028;53.612;10.038;2022-07-24T09:09:43;4.25;;;2.97;;
15856;SDS011;8028;53.612;10.038;2022-07-24T09:12:21;5.95;;;4.00;;
15856;SDS011;8028;53.612;10.038;2022-07-24T09:14:47;2.67;;;2.45;;
15856;SDS011;8028;53.612;10.038;2022-07-24T09:17:25;2.60;;;2.40;;
15856;SDS011;8028;53.612;10.038;2022-07-24T09:20:07;5.40;;;2.70;;
15856;SDS011;8028;53.612;10.038;2022-07-24T09:22:35;3.05;;;2.50;;
15856;SDS011;8028;53.612;10.038;2022-07-24T09:30:26;3.60;;;2.17;;
15856;SDS011;8028;53.612;10.038;2022-07-24T09:35:41;2.40;;;2.20;;
15856;SDS011;8028;53.612;10.038;2022-07-24T09:38:10;4.65;;;2.67;;
15856;SDS011;8028;53.612;10.038;2022-07-24T09:40:38;2.45;;;1.98;;
15856;SDS011;8028;53.612;10.038;2022-07-24T09:43:11;2.40;;;2.13;;
15856;SDS011;8028;53.612;10.038;2022-07-24T09:45:51;4.35;;;1.98;;
15856;SDS011;8028;53.612;10.038;2022-07-24T09:48:27;4.38;;;2.05;;
15856;SDS011;8028;53.612;10.038;2022-07-24T09:50:55;3.10;;;2.45;;
15856;SDS011;8028;53.612;10.038;2022-07-24T09:53:27;3.70;;;1.90;;
15856;SDS011;8028;53.612;10.038;2022-07-24T09:55:59;3.72;;;2.28;;
15856;SDS011;8028;53.612;10.038;2022-07-24T09:58:26;2.85;;;2.65;;
15856;SDS011;8028;53.612;10.038;2022-07-24T10:00:53;2.28;;;1.98;;
15856;SDS011;8028;53.612;10.038;2022-07-24T10:03:23;2.40;;;2.20;;
15856;SDS011;8028;53.612;10.038;2022-07-24T10:05:52;2.65;;;2.45;;
15856;SDS011;8028;53.612;10.038;2022-07-24T10:08:20;4.60;;;2.53;;
15856;SDS011;8028;53.612;10.038;2022-07-24T10:10:46;3.80;;;2.50;;
15856;SDS011;8028;53.612;10.038;2022-07-24T10:13:14;2.38;;;2.28;;
15856;SDS011;8028;53.612;10.038;2022-07-24T10:15:46;3.90;;;2.45;;
15856;SDS011;8028;53.612;10.038;2022-07-24T10:18:18;4.55;;;2.10;;
15856;SDS011;8028;53.612;10.038;2022-07-24T10:20:45;2.55;;;2.28;;
15856;SDS011;8028;53.612;10.038;2022-07-24T10:23:20;4.22;;;2.50;;
15856;SDS011;8028;53.612;10.038;2022-07-24T10:28:54;2.47;;;2.25;;
15856;SDS011;8028;53.612;10.038;2022-07-24T10:31:15;3.28;;;2.53;;
15856;SDS011;8028;53.612;10.038;2022-07-24T10:33:41;3.70;;;2.35;;
15856;SDS011;8028;53.612;10.038;2022-07-24T10:36:27;5.22;;;2.85;;
15856;SDS011;8028;53.612;10.038;2022-07-24T10:39:03;3.92;;;2.15;;
15856;SDS011;8028;53.612;10.038;2022-07-24T10:41:38;2.47;;;2.28;;
15856;SDS011;8028;53.612;10.038;2022-07-24T10:44:11;1.83;;;1.73;;
15856;SDS011;8028;53.612;10.038;2022-07-24T10:49:44;3.38;;;3.08;;
15856;SDS011;8028;53.612;10.038;2022-07-24T10:52:27;5.85;;;2.80;;
15856;SDS011;8028;53.612;10.038;2022-07-24T10:57:58;4.05;;;3.13;;
15856;SDS011;8028;53.612;10.038;2022-07-24T11:06:07;5.90;;;3.97;;
15856;SDS011;8028;53.612;10.038;2022-07-24T11:08:38;4.15;;;3.75;;
15856;SDS011;8028;53.612;10.038;2022-07-24T11:21:12;4.57;;;4.13;;
15856;SDS011;8028;53.612;10.038;2022-07-24T11:26:54;4.10;;;3.75;;
15856;SDS011;8028;53.612;10.038;2022-07-24T11:29:25;4.53;;;3.83;;
15856;SDS011;8028;53.612;10.038;2022-07-24T11:36:42;4.35;;;3.63;;
15856;SDS011;8028;53.612;10.038;2022-07-24T11:39:13;4.70;;;3.45;;
15856;SDS011;8028;53.612;10.038;2022-07-24T11:41:42;7.43;;;3.97;;
15856;SDS011;8028;53.612;10.038;2022-07-24T11:44:11;4.47;;;3.70;;
15856;SDS011;8028;53.612;10.038;2022-07-24T11:46:38;4.70;;;4.15;;
15856;SDS011;8028;53.612;10.038;2022-07-24T11:49:06;5.80;;;4.00;;
15856;SDS011;8028;53.612;10.038;2022-07-24T11:51:43;6.13;;;4.80;;
15856;SDS011;8028;53.612;10.038;2022-07-24T11:54:29;6.10;;;3.75;;
15856;SDS011;8028;53.612;10.038;2022-07-24T11:56:55;5.10;;;3.70;;
15856;SDS011;8028;53.612;10.038;2022-07-24T11:59:28;4.70;;;4.22;;
15856;SDS011;8028;53.612;10.038;2022-07-24T12:01:56;4.45;;;4.05;;
15856;SDS011;8028;53.612;10.038;2022-07-24T12:04:28;3.85;;;3.53;;
15856;SDS011;8028;53.612;10.038;2022-07-24T12:06:54;4.72;;;4.32;;
15856;SDS011;8028;53.612;10.038;2022-07-24T12:09:20;9.35;;;4.50;;
15856;SDS011;8028;53.612;10.038;2022-07-24T12:11:45;4.55;;;3.88;;
15856;SDS011;8028;53.612;10.038;2022-07-24T12:14:15;4.60;;;3.88;;
15856;SDS011;8028;53.612;10.038;2022-07-24T12:16:42;5.97;;;3.80;;
15856;SDS011;8028;53.612;10.038;2022-07-24T12:19:15;4.03;;;3.63;;
15856;SDS011;8028;53.612;10.038;2022-07-24T12:21:42;5.85;;;4.60;;
15856;SDS011;8028;53.612;10.038;2022-07-24T12:24:09;5.47;;;3.55;;
15856;SDS011;8028;53.612;10.038;2022-07-24T12:26:47;5.93;;;3.78;;
15856;SDS011;8028;53.612;10.038;2022-07-24T12:29:16;5.28;;;3.20;;
15856;SDS011;8028;53.612;10.038;2022-07-24T12:31:42;4.70;;;3.40;;
15856;SDS011;8028;53.612;10.038;2022-07-24T12:34:08;6.47;;;4.32;;
15856;SDS011;8028;53.612;10.038;2022-07-24T12:36:34;4.80;;;3.83;;
15856;SDS011;8028;53.612;10.038;2022-07-24T12:39:02;5.53;;;3.30;;
15856;SDS011;8028;53.612;10.038;2022-07-24T12:41:30;4.65;;;4.35;;
15856;SDS011;8028;53.612;10.038;2022-07-24T12:46:32;5.22;;;3.42;;
15856;SDS011;8028;53.612;10.038;2022-07-24T12:54:17;3.88;;;3.50;;
15856;SDS011;8028;53.612;10.038;2022-07-24T12:56:52;4.18;;;3.20;;
15856;SDS011;8028;53.612;10.038;2022-07-24T12:59:38;5.32;;;3.58;;
15856;SDS011;8028;53.612;10.038;2022-07-24T13:02:15;4.25;;;3.00;;
15856;SDS011;8028;53.612;10.038;2022-07-24T13:04:45;4.10;;;3.30;;
15856;SDS011;8028;53.612;10.038;2022-07-24T13:07:13;4.78;;;3.90;;
15856;SDS011;8028;53.612;10.038;2022-07-24T13:09:40;3.80;;;3.42;;
15856;SDS011;8028;53.612;10.038;2022-07-24T13:12:07;6.13;;;3.53;;
15856;SDS011;8028;53.612;10.038;2022-07-24T13:14:33;4.75;;;4.18;;
15856;SDS011;8028;53.612;10.038;2022-07-24T13:19:30;4.25;;;3.60;;
15856;SDS011;8028;53.612;10.038;2022-07-24T13:21:56;6.18;;;3.40;;
15856;SDS011;8028;53.612;10.038;2022-07-24T13:24:22;6.50;;;3.60;;
15856;SDS011;8028;53.612;10.038;2022-07-24T13:27:03;3.60;;;3.25;;
15856;SDS011;8028;53.612;10.038;2022-07-24T13:29:38;4.32;;;3.63;;
15856;SDS011;8028;53.612;10.038;2022-07-24T13:32:04;3.65;;;3.35;;
15856;SDS011;8028;53.612;10.038;2022-07-24T13:34:31;3.80;;;3.50;;
15856;SDS011;8028;53.612;10.038;2022-07-24T13:36:57;6.93;;;3.47;;
15856;SDS011;8028;53.612;10.038;2022-07-24T13:39:24;5.53;;;4.97;;
15856;SDS011;8028;53.612;10.038;2022-07-24T13:41:49;6.05;;;4.43;;
15856;SDS011;8028;53.612;10.038;2022-07-24T13:44:15;5.90;;;3.47;;
15856;SDS011;8028;53.612;10.038;2022-07-24T13:46:41;7.88;;;5.90;;
15856;SDS011;8028;53.612;10.038;2022-07-24T13:49:07;9.32;;;3.85;;
15856;SDS011;8028;53.612;10.038;2022-07-24T13:51:33;3.80;;;3.47;;
15856;SDS011;8028;53.612;10.038;2022-07-24T13:54:00;3.35;;;3.05;;
15856;SDS011;8028;53.612;10.038;2022-07-24T13:56:26;3.53;;;3.22;;
15856;SDS011;8028;53.612;10.038;2022-07-24T13:58:53;6.40;;;3.33;;
15856;SDS011;8028;53.612;10.038;2022-07-24T14:01:18;3.75;;;3.45;;
15856;SDS011;8028;53.612;10.038;2022-07-24T14:03:44;3.92;;;3.63;;
15856;SDS011;8028;53.612;10.038;2022-07-24T14:06:10;4.60;;;3.42;;
15856;SDS011;8028;53.612;10.038;2022-07-24T14:08:37;3.72;;;3.35;;
15856;SDS011;8028;53.612;10.038;2022-07-24T14:11:04;3.90;;;3.60;;
15856;SDS011;8028;53.612;10.038;2022-07-24T14:13:30;5.15;;;3.10;;
15856;SDS011;8028;53.612;10.038;2022-07-24T14:15:56;3.92;;;3.47;;
15856;SDS011;8028;53.612;10.038;2022-07-24T14:18:22;4.05;;;3.28;;
15856;SDS011;8028;53.612;10.038;2022-07-24T14:20:48;10.68;;;4.60;;
15856;SDS011;8028;53.612;10.038;2022-07-24T14:23:14;4.85;;;3.08;;
15856;SDS011;8028;53.612;10.038;2022-07-24T14:25:39;3.58;;;3.28;;
15856;SDS011;8028;53.612;10.038;2022-07-24T14:28:05;4.35;;;3.20;;
15856;SDS011;8028;53.612;10.038;2022-07-24T14:30:31;2.95;;;2.60;;
15856;SDS011;8028;53.612;10.038;2022-07-24T14:32:57;3.22;;;3.00;;
15856;SDS011;8028;53.612;10.038;2022-07-24T14:35:26;2.70;;;2.50;;
15856;SDS011;8028;53.612;10.038;2022-07-24T14:38:06;3.72;;;3.17;;
15856;SDS011;8028;53.612;10.038;2022-07-24T14:40:32;3.63;;;3.33;;
15856;SDS011;8028;53.612;10.038;2022-07-24T14:42:58;8.15;;;3.65;;
15856;SDS011;8028;53.612;10.038;2022-07-24T14:45:23;3.53;;;3.22;;
15856;SDS011;8028;53.612;10.038;2022-07-24T14:47:49;3.33;;;3.03;;
15856;SDS011;8028;53.612;10.038;2022-07-24T14:50:15;6.07;;;3.08;;
15856;SDS011;8028;53.612;10.038;2022-07-24T14:52:41;4.10;;;3.10;;
15856;SDS011;8028;53.612;10.038;2022-07-24T14:55:07;3.47;;;2.92;;
15856;SDS011;8028;53.612;10.038;2022-07-24T14:57:33;4.22;;;3.65;;
15856;SDS011;8028;53.612;10.038;2022-07-24T14:59:59;7.15;;;3.33;;
15856;SDS011;8028;53.612;10.038;2022-07-24T15:02:25;3.13;;;2.78;;
15856;SDS011;8028;53.612;10.038;2022-07-24T15:04:51;3.22;;;2.70;;
15856;SDS011;8028;53.612;10.038;2022-07-24T15:07:17;3.05;;;2.15;;
15856;SDS011;8028;53.612;10.038;2022-07-24T15:09:43;3.17;;;2.58;;
15856;SDS011;8028;53.612;10.038;2022-07-24T15:12:09;3.22;;;2.63;;
15856;SDS011;8028;53.612;10.038;2022-07-24T15:14:35;2.50;;;2.25;;
15856;SDS011;8028;53.612;10.038;2022-07-24T15:17:00;4.28;;;2.20;;
15856;SDS011;8028;53.612;10.038;2022-07-24T15:19:26;2.88;;;2.28;;
15856;SDS011;8028;53.612;10.038;2022-07-24T15:21:52;4.28;;;2.70;;
15856;SDS011;8028;53.612;10.038;2022-07-24T15:24:18;6.47;;;2.72;;
15856;SDS011;8028;53.612;10.038;2022-07-24T15:26:44;2.90;;;2.60;;
15856;SDS011;8028;53.612;10.038;2022-07-24T15:29:10;3.13;;;1.77;;
15856;SDS011;8028;53.612;10.038;2022-07-24T15:31:36;2.05;;;1.88;;
15856;SDS011;8028;53.612;10.038;2022-07-24T15:34:02;2.70;;;2.05;;
15856;SDS011;8028;53.612;10.038;2022-07-24T15:36:28;3.20;;;2.42;;
15856;SDS011;8028;53.612;10.038;2022-07-24T15:38:53;4.85;;;2.53;;
15856;SDS011;8028;53.612;10.038;2022-07-24T15:41:19;2.58;;;2.38;;
15856;SDS011;8028;53.612;10.038;2022-07-24T15:43:45;3.42;;;2.80;;
15856;SDS011;8028;53.612;10.038;2022-07-24T15:46:11;2.97;;;2.67;;
15856;SDS011;8028;53.612;10.038;2022-07-24T15:48:36;3.30;;;1.90;;
15856;SDS011;8028;53.612;10.038;2022-07-24T15:51:02;3.50;;;2.13;;